Time;durP1;ratioP1;P1;durP2;ratioP2;P2;SDS_P1;SDS_P2;PMS_P1;PMS_P2;Temp;Humidity;BMP_temperature;BMP_pressure;BME280_temperature;BME280_humidity;BME280_pressure;Samples;Min_cycle;Max_cycle;Signal;HPM_P1;HPM_P2
2023/05/30 00:00:03;;;;;;;17.20;4.63;;;9.80;99.60;;;;;;6282725;22;20030;-94
2023/05/30 00:02:29;;;;;;;16.67;4.75;;;9.80;99.90;;;;;;6310943;22;20590;-93
2023/05/30 00:04:55;;;;;;;16.75;4.00;;;9.80;99.90;;;;;;6282668;22;20086;-94
2023/05/30 00:07:20;;;;;;;22.38;4.03;;;9.80;99.90;;;;;;6283615;22;20094;-94
2023/05/30 00:09:46;;;;;;;22.35;4.30;;;9.80;99.90;;;;;;6284138;22;20423;-94
2023/05/30 00:12:12;;;;;;;20.08;5.20;;;9.70;99.90;;;;;;6283541;22;20038;-94
2023/05/30 00:14:39;;;;;;;15.50;4.55;;;9.70;99.90;;;;;;6283678;22;20078;-93
2023/05/30 00:17:07;;;;;;;17.75;4.38;;;9.60;99.90;;;;;;6283122;22;20038;-94
2023/05/30 00:19:34;;;;;;;25.05;4.50;;;9.60;99.90;;;;;;6282888;22;20449;-93
2023/05/30 00:22:01;;;;;;;24.00;4.50;;;9.60;99.90;;;;;;6282998;22;19995;-94
2023/05/30 00:24:28;;;;;;;19.42;4.53;;;9.50;99.90;;;;;;6311050;22;20003;-94
2023/05/30 00:26:54;;;;;;;21.38;4.72;;;9.50;99.90;;;;;;6281908;22;20004;-93
2023/05/30 00:29:20;;;;;;;19.25;4.40;;;9.50;99.90;;;;;;6283567;22;20003;-94
2023/05/30 00:31:45;;;;;;;21.17;4.60;;;9.40;99.90;;;;;;6284079;22;20444;-95
2023/05/30 00:34:11;;;;;;;23.08;5.10;;;9.40;99.90;;;;;;6278499;22;20497;-94
2023/05/30 00:36:37;;;;;;;19.40;5.03;;;9.40;99.90;;;;;;6254541;22;20011;-95
2023/05/30 00:39:03;;;;;;;21.10;4.13;;;9.30;99.90;;;;;;6278602;22;20467;-94
2023/05/30 00:41:28;;;;;;;21.13;5.28;;;9.30;99.90;;;;;;6281077;22;20039;-94
2023/05/30 00:43:54;;;;;;;18.10;4.72;;;9.30;99.90;;;;;;6284808;22;20045;-95
2023/05/30 00:46:20;;;;;;;17.27;4.47;;;9.20;99.90;;;;;;6285723;22;20057;-94
2023/05/30 00:48:46;;;;;;;16.77;4.57;;;9.20;99.90;;;;;;6265078;22;20388;-94
2023/05/30 00:51:12;;;;;;;18.83;4.57;;;9.20;99.90;;;;;;6287737;22;20011;-94
2023/05/30 00:53:40;;;;;;;19.75;4.95;;;9.10;99.90;;;;;;6284150;22;20017;-95
2023/05/30 00:56:07;;;;;;;22.75;5.10;;;9.10;99.90;;;;;;6277807;22;20000;-94
2023/05/30 00:58:33;;;;;;;16.50;4.50;;;9.00;99.90;;;;;;6278560;22;20023;-95
2023/05/30 01:01:01;;;;;;;18.00;4.68;;;9.00;99.90;;;;;;6283501;22;20010;-93
2023/05/30 01:03:32;;;;;;;14.88;4.28;;;8.90;99.90;;;;;;6268245;22;20022;-94
2023/05/30 01:06:03;;;;;;;27.75;4.63;;;8.80;99.90;;;;;;6255422;22;20059;-94
2023/05/30 01:08:29;;;;;;;20.85;4.55;;;8.80;99.90;;;;;;6254306;22;20432;-94
2023/05/30 01:11:02;;;;;;;13.40;3.83;;;8.80;99.90;;;;;;6254536;22;20007;-95
2023/05/30 01:13:38;;;;;;;13.57;4.47;;;8.80;99.90;;;;;;6252490;23;20000;-96
2023/05/30 01:16:13;;;;;;;12.82;4.30;;;8.80;99.90;;;;;;6246973;22;20078;-96
2023/05/30 01:19:09;;;;;;;21.83;5.20;;;8.70;99.90;;;;;;6284604;22;20014;-94
2023/05/30 01:21:37;;;;;;;17.88;4.20;;;8.60;99.90;;;;;;6287459;22;20065;-94
2023/05/30 01:24:25;;;;;;;19.63;5.15;;;8.40;99.90;;;;;;6289284;22;20079;-94
2023/05/30 01:27:11;;;;;;;16.25;5.18;;;8.30;99.90;;;;;;6302555;22;20010;-94
2023/05/30 01:29:42;;;;;;;20.67;5.13;;;8.30;99.90;;;;;;6279405;22;20045;-96
2023/05/30 01:32:08;;;;;;;21.52;5.30;;;8.20;99.90;;;;;;6278600;22;20422;-94
2023/05/30 01:34:36;;;;;;;19.10;4.72;;;8.10;99.90;;;;;;6278869;22;20043;-95
2023/05/30 01:37:01;;;;;;;13.00;5.38;;;8.10;99.90;;;;;;6278420;22;20003;-94
2023/05/30 01:39:27;;;;;;;20.77;4.57;;;8.10;99.90;;;;;;6275804;22;20046;-96
2023/05/30 01:42:16;;;;;;;16.42;5.00;;;8.00;99.90;;;;;;6272012;22;20363;-95
2023/05/30 01:44:50;;;;;;;17.63;5.18;;;8.00;99.90;;;;;;6255526;22;20012;-94
2023/05/30 01:47:31;;;;;;;12.48;3.67;;;7.90;99.90;;;;;;6256444;22;20312;-95
2023/05/30 01:50:41;;;;;;;18.67;6.00;;;7.90;99.90;;;;;;6256588;22;20033;-95
2023/05/30 01:53:12;;;;;;;21.20;4.97;;;7.80;99.90;;;;;;6105465;23;20009;-95
2023/05/30 01:55:42;;;;;;;23.65;6.63;;;7.60;99.90;;;;;;6130065;23;20101;-95
2023/05/30 01:58:08;;;;;;;15.27;4.70;;;7.60;99.90;;;;;;6105651;23;20009;-95
2023/05/30 02:00:37;;;;;;;19.40;5.30;;;7.40;99.90;;;;;;6103412;23;20033;-94
2023/05/30 02:03:04;;;;;;;14.27;4.95;;;7.40;99.90;;;;;;6103796;23;20003;-94
2023/05/30 02:05:30;;;;;;;16.83;5.00;;;7.30;99.90;;;;;;6103244;23;20028;-93
2023/05/30 02:07:57;;;;;;;15.80;4.43;;;7.30;99.90;;;;;;6104530;23;20121;-94
2023/05/30 02:10:22;;;;;;;12.68;4.85;;;7.30;99.90;;;;;;6103738;23;20017;-93
2023/05/30 02:12:51;;;;;;;12.65;4.45;;;7.30;99.90;;;;;;6105004;23;20013;-95
2023/05/30 02:15:18;;;;;;;15.88;4.05;;;7.20;99.90;;;;;;6103054;23;20473;-94
2023/05/30 02:17:44;;;;;;;15.40;4.63;;;7.20;99.90;;;;;;6102653;23;20028;-93
2023/05/30 02:20:10;;;;;;;17.48;5.00;;;7.20;99.90;;;;;;6103286;23;20071;-95
2023/05/30 02:22:40;;;;;;;13.55;4.45;;;7.20;99.90;;;;;;6104883;23;20013;-95
2023/05/30 02:25:06;;;;;;;21.00;5.53;;;7.20;99.90;;;;;;6243252;22;20014;-94
2023/05/30 02:27:35;;;;;;;17.80;4.85;;;7.20;99.90;;;;;;6262294;22;19991;-94
2023/05/30 02:30:02;;;;;;;16.50;5.25;;;7.20;99.90;;;;;;6273627;22;20011;-94
2023/05/30 02:32:28;;;;;;;20.10;4.93;;;7.20;99.90;;;;;;6256581;22;19999;-94
2023/05/30 02:34:55;;;;;;;18.92;5.55;;;7.10;99.90;;;;;;6282643;22;20454;-94
2023/05/30 02:37:21;;;;;;;17.35;5.20;;;7.10;99.90;;;;;;6254438;22;20331;-94
2023/05/30 02:39:47;;;;;;;18.40;4.80;;;7.10;99.90;;;;;;6255273;22;20069;-95
2023/05/30 02:42:13;;;;;;;12.77;4.65;;;7.10;99.90;;;;;;6256544;22;20034;-93
2023/05/30 02:44:38;;;;;;;14.18;4.40;;;7.10;99.90;;;;;;6255309;22;20086;-95
2023/05/30 02:47:04;;;;;;;20.10;4.95;;;7.20;99.90;;;;;;6257307;22;20007;-95
2023/05/30 02:49:30;;;;;;;13.68;4.32;;;7.20;99.90;;;;;;6258152;22;20003;-96
2023/05/30 02:51:56;;;;;;;13.23;4.78;;;7.20;99.90;;;;;;6260992;22;20008;-95
2023/05/30 02:54:23;;;;;;;18.50;4.68;;;7.20;99.90;;;;;;6265821;22;20007;-93
2023/05/30 02:56:49;;;;;;;17.02;4.82;;;7.30;99.90;;;;;;6267609;22;20010;-94
2023/05/30 02:59:15;;;;;;;19.33;6.45;;;7.30;99.90;;;;;;6277685;22;20007;-95
2023/05/30 03:01:40;;;;;;;18.88;4.97;;;7.30;99.90;;;;;;6278852;22;19992;-95
2023/05/30 03:04:07;;;;;;;18.77;4.80;;;7.30;99.90;;;;;;6274964;22;20019;-95
2023/05/30 03:06:35;;;;;;;13.05;4.70;;;7.40;99.90;;;;;;6269999;22;20019;-95
2023/05/30 03:09:01;;;;;;;17.73;5.07;;;7.50;99.90;;;;;;6267055;22;20011;-94
2023/05/30 03:11:27;;;;;;;18.67;5.10;;;7.50;99.90;;;;;;6268882;22;20023;-95
2023/05/30 03:13:54;;;;;;;19.67;4.93;;;7.50;99.90;;;;;;6275859;22;19991;-94
2023/05/30 03:16:20;;;;;;;20.77;5.65;;;7.50;99.90;;;;;;6278649;22;20020;-95
2023/05/30 03:18:49;;;;;;;13.88;5.60;;;7.40;99.90;;;;;;6303314;22;20026;-95
2023/05/30 03:21:15;;;;;;;16.27;4.95;;;7.40;99.90;;;;;;6303944;22;20014;-94
2023/05/30 03:23:41;;;;;;;19.30;5.93;;;7.50;99.90;;;;;;6300079;22;20008;-94
2023/05/30 03:26:06;;;;;;;17.73;5.18;;;7.50;99.90;;;;;;6303483;22;20011;-93
2023/05/30 03:28:33;;;;;;;20.80;5.55;;;7.50;99.90;;;;;;6302762;22;20055;-95
2023/05/30 03:31:00;;;;;;;18.42;5.72;;;7.50;99.90;;;;;;6285162;22;20031;-96
2023/05/30 03:33:28;;;;;;;27.58;5.75;;;7.50;99.90;;;;;;6281788;22;20016;-94
2023/05/30 03:35:55;;;;;;;23.92;6.60;;;7.50;99.90;;;;;;6281950;22;20079;-96
2023/05/30 03:38:21;;;;;;;25.95;6.22;;;7.50;99.90;;;;;;6256127;22;20024;-94
2023/05/30 03:40:47;;;;;;;19.42;5.45;;;7.50;99.90;;;;;;6280845;22;20050;-96
2023/05/30 03:43:14;;;;;;;11.80;4.80;;;7.60;99.90;;;;;;6281372;22;20008;-95
2023/05/30 03:45:41;;;;;;;17.85;5.53;;;7.60;99.90;;;;;;6283169;22;20074;-96
2023/05/30 03:48:07;;;;;;;15.77;4.88;;;7.70;99.90;;;;;;6256403;22;20056;-95
2023/05/30 03:50:33;;;;;;;20.90;5.60;;;7.80;99.90;;;;;;6234908;22;20003;-95
2023/05/30 03:52:59;;;;;;;16.73;4.47;;;7.90;99.90;;;;;;6260807;22;20063;-94
2023/05/30 03:55:25;;;;;;;20.45;5.07;;;7.90;99.90;;;;;;6274706;22;20002;-93
2023/05/30 03:57:50;;;;;;;16.63;4.90;;;8.10;99.90;;;;;;6261450;22;20019;-95
2023/05/30 04:00:16;;;;;;;30.88;4.95;;;8.20;99.90;;;;;;6257158;22;20011;-94
2023/05/30 04:02:43;;;;;;;15.98;4.20;;;8.30;99.90;;;;;;6284781;22;20074;-94
2023/05/30 04:05:09;;;;;;;20.23;5.22;;;8.40;99.90;;;;;;6256578;22;20111;-93
2023/05/30 04:07:36;;;;;;;18.27;4.80;;;8.40;99.90;;;;;;6256635;22;20011;-94
2023/05/30 04:10:05;;;;;;;15.48;3.58;;;8.50;99.90;;;;;;6281557;22;20443;-95
2023/05/30 04:12:37;;;;;;;16.50;3.80;;;8.60;99.90;;;;;;6285461;22;20007;-94
2023/05/30 04:15:04;;;;;;;22.33;4.90;;;8.70;99.90;;;;;;6297117;22;20004;-95
2023/05/30 04:17:30;;;;;;;21.00;4.20;;;8.80;99.90;;;;;;6297809;22;19996;-95
2023/05/30 04:19:56;;;;;;;16.88;4.13;;;8.90;99.90;;;;;;6298390;22;20008;-94
2023/05/30 04:22:24;;;;;;;16.10;3.80;;;8.90;99.90;;;;;;6301857;22;20022;-95
2023/05/30 04:24:50;;;;;;;19.88;4.30;;;9.00;99.90;;;;;;6298671;22;20008;-94
2023/05/30 04:27:17;;;;;;;23.80;4.03;;;9.10;99.90;;;;;;6300845;22;19988;-94
2023/05/30 04:29:43;;;;;;;22.70;5.15;;;9.20;99.90;;;;;;6294696;22;20035;-93
2023/05/30 04:32:09;;;;;;;12.75;3.33;;;9.20;99.90;;;;;;6289994;22;19999;-94
2023/05/30 04:34:35;;;;;;;14.50;3.58;;;9.30;99.90;;;;;;6257713;23;20035;-93
2023/05/30 04:37:01;;;;;;;22.73;4.35;;;9.40;99.90;;;;;;6232798;23;20039;-93
2023/05/30 04:39:27;;;;;;;20.05;5.07;;;9.40;99.90;;;;;;6242232;22;20016;-94
2023/05/30 04:41:54;;;;;;;27.23;4.75;;;9.50;99.90;;;;;;6235923;23;20010;-94
2023/05/30 04:44:20;;;;;;;17.30;3.80;;;9.50;99.90;;;;;;6241569;23;19997;-93
2023/05/30 04:46:48;;;;;;;18.10;3.53;;;9.50;99.90;;;;;;6233908;23;20091;-93
2023/05/30 04:49:15;;;;;;;18.83;3.85;;;9.50;99.90;;;;;;6244305;23;20023;-93
2023/05/30 04:51:41;;;;;;;17.05;4.25;;;9.60;99.90;;;;;;6255646;23;20340;-94
2023/05/30 04:54:07;;;;;;;21.88;4.88;;;9.60;99.90;;;;;;6231055;23;20008;-95
2023/05/30 04:56:33;;;;;;;18.45;3.90;;;9.60;99.90;;;;;;6232773;23;20000;-95
2023/05/30 04:59:00;;;;;;;20.40;3.55;;;9.70;99.90;;;;;;6226334;23;20016;-95
2023/05/30 05:01:26;;;;;;;16.88;3.50;;;9.70;99.90;;;;;;6224353;23;20052;-95
2023/05/30 05:03:52;;;;;;;18.40;4.28;;;9.80;99.90;;;;;;6227447;23;20008;-95
2023/05/30 05:06:18;;;;;;;21.63;3.50;;;9.80;99.90;;;;;;6227895;23;20000;-93
2023/05/30 05:08:43;;;;;;;22.08;4.18;;;9.80;99.90;;;;;;6224706;23;20067;-94
2023/05/30 05:11:09;;;;;;;14.68;3.72;;;9.80;99.90;;;;;;6225256;23;20455;-93
2023/05/30 05:13:35;;;;;;;16.08;3.53;;;9.90;99.90;;;;;;6224078;23;20091;-95
2023/05/30 05:16:06;;;;;;;23.58;3.72;;;9.90;99.90;;;;;;6224151;23;20004;-94
2023/05/30 05:18:32;;;;;;;;;;;9.90;99.90;;;;;;6224994;23;20046;-93
2023/05/30 05:20:58;;;;;;;15.50;3.47;;;10.00;99.90;;;;;;6232689;23;19919;-95
2023/05/30 05:23:24;;;;;;;15.18;3.97;;;10.00;99.90;;;;;;6234204;23;20000;-95
2023/05/30 05:25:50;;;;;;;14.73;3.88;;;10.00;99.90;;;;;;6230187;23;20022;-96
2023/05/30 05:28:16;;;;;;;11.95;3.13;;;10.00;99.90;;;;;;6233065;23;20007;-94
2023/05/30 05:30:41;;;;;;;19.33;3.17;;;10.10;99.90;;;;;;6235743;23;20051;-94
2023/05/30 05:33:08;;;;;;;23.13;3.35;;;10.10;99.90;;;;;;6244187;23;20012;-95
2023/05/30 05:35:36;;;;;;;18.98;3.58;;;10.20;99.90;;;;;;6269347;23;20026;-95
2023/05/30 05:38:03;;;;;;;19.33;4.13;;;10.20;99.90;;;;;;6235637;23;20157;-95
2023/05/30 05:40:30;;;;;;;12.77;3.20;;;10.30;99.90;;;;;;6231123;23;20011;-94
2023/05/30 05:42:55;;;;;;;15.20;2.97;;;10.40;99.90;;;;;;6234367;23;20027;-94
2023/05/30 05:45:21;;;;;;;13.13;4.35;;;10.40;99.90;;;;;;6239723;23;20034;-95
2023/05/30 05:47:48;;;;;;;16.42;3.40;;;10.40;99.90;;;;;;6244657;23;20003;-95
2023/05/30 05:50:14;;;;;;;12.68;2.95;;;10.50;99.90;;;;;;6245453;23;20040;-95
2023/05/30 05:52:40;;;;;;;11.25;3.25;;;10.50;99.90;;;;;;6242622;23;20004;-95
2023/05/30 05:55:07;;;;;;;17.92;3.65;;;10.60;99.90;;;;;;6247000;22;20012;-94
2023/05/30 05:57:33;;;;;;;18.08;3.40;;;10.60;99.90;;;;;;6246038;22;20047;-95
2023/05/30 05:59:59;;;;;;;13.00;3.88;;;10.60;99.90;;;;;;6248207;22;20027;-95
2023/05/30 06:02:24;;;;;;;16.20;3.78;;;10.70;99.90;;;;;;6248017;23;20011;-95
2023/05/30 06:04:50;;;;;;;11.55;3.33;;;10.70;99.90;;;;;;6243676;23;20012;-96
2023/05/30 06:07:19;;;;;;;14.48;3.42;;;10.70;99.90;;;;;;6241682;23;19998;-95
2023/05/30 06:09:46;;;;;;;16.27;3.38;;;10.80;99.90;;;;;;6239725;23;20012;-94
2023/05/30 06:12:11;;;;;;;20.90;4.32;;;10.90;99.90;;;;;;6227579;23;20135;-95
2023/05/30 06:14:38;;;;;;;14.95;3.55;;;10.90;99.90;;;;;;6228358;23;20004;-96
2023/05/30 06:17:05;;;;;;;15.52;3.72;;;11.00;99.90;;;;;;6177402;23;20012;-95
2023/05/30 06:19:31;;;;;;;15.45;4.15;;;11.00;99.90;;;;;;6226954;23;20027;-94
2023/05/30 06:21:56;;;;;;;16.13;3.90;;;11.10;99.90;;;;;;6225638;23;20004;-95
2023/05/30 06:24:25;;;;;;;15.73;3.70;;;11.10;99.90;;;;;;6224979;23;20014;-94
2023/05/30 06:26:52;;;;;;;19.58;3.60;;;11.20;99.90;;;;;;6225913;23;20000;-95
2023/05/30 06:29:18;;;;;;;16.70;3.63;;;11.30;99.90;;;;;;6252524;23;20007;-95
2023/05/30 06:31:44;;;;;;;15.43;3.53;;;11.40;99.90;;;;;;6226666;23;20068;-96
2023/05/30 06:34:10;;;;;;;15.43;4.30;;;11.50;99.90;;;;;;6248214;22;20067;-95
2023/05/30 06:36:39;;;;;;;16.30;4.28;;;11.50;99.90;;;;;;6230972;22;20011;-95
2023/05/30 06:39:05;;;;;;;16.25;4.05;;;11.50;99.90;;;;;;6281436;22;20007;-96
2023/05/30 06:41:34;;;;;;;17.63;3.38;;;11.50;99.90;;;;;;6281508;22;20015;-95
2023/05/30 06:44:00;;;;;;;19.40;3.22;;;11.60;99.90;;;;;;6281578;22;20339;-95
2023/05/30 06:46:26;;;;;;;11.57;3.28;;;11.60;99.90;;;;;;6259328;22;20004;-96
2023/05/30 06:48:53;;;;;;;12.80;3.50;;;11.60;99.90;;;;;;6304748;22;20015;-95
2023/05/30 06:51:20;;;;;;;15.90;3.10;;;11.70;99.90;;;;;;6288630;22;20007;-96
2023/05/30 06:53:46;;;;;;;16.20;4.70;;;11.70;99.90;;;;;;6286556;22;20010;-95
2023/05/30 06:56:13;;;;;;;18.00;3.78;;;11.80;99.90;;;;;;6290011;22;20011;-96
2023/05/30 06:58:40;;;;;;;18.88;3.95;;;11.90;99.90;;;;;;6295432;22;20011;-95
2023/05/30 07:01:10;;;;;;;18.15;3.58;;;11.90;99.90;;;;;;6293063;22;19999;-95
2023/05/30 07:03:42;;;;;;;19.05;3.88;;;11.90;99.90;;;;;;6291520;22;20003;-96
2023/05/30 07:06:08;;;;;;;23.05;4.32;;;12.00;99.90;;;;;;6287976;22;20045;-94
2023/05/30 07:08:34;;;;;;;13.25;3.15;;;12.00;99.90;;;;;;6286061;22;20007;-94
2023/05/30 07:11:02;;;;;;;17.17;3.53;;;12.10;99.90;;;;;;6291680;22;20003;-96
2023/05/30 07:13:29;;;;;;;16.15;2.80;;;12.10;99.90;;;;;;6292344;22;20003;-96
2023/05/30 07:15:56;;;;;;;16.20;3.15;;;12.20;99.90;;;;;;6286910;22;20003;-94
2023/05/30 07:18:22;;;;;;;15.23;3.80;;;12.30;99.90;;;;;;6284823;22;20015;-94
2023/05/30 07:20:48;;;;;;;14.73;3.03;;;12.40;99.90;;;;;;6286076;22;20060;-96
2023/05/30 07:23:14;;;;;;;13.50;2.92;;;12.50;99.90;;;;;;6286426;22;20085;-96
2023/05/30 07:25:42;;;;;;;16.35;3.22;;;12.50;99.90;;;;;;6313376;22;19995;-95
2023/05/30 07:28:10;;;;;;;13.07;2.78;;;12.60;99.90;;;;;;6285612;22;20003;-96
2023/05/30 07:30:36;;;;;;;20.20;2.63;;;12.60;99.90;;;;;;6285269;22;19999;-95
2023/05/30 07:33:05;;;;;;;18.20;3.33;;;12.70;99.90;;;;;;6261224;22;20030;-96
2023/05/30 07:35:31;;;;;;;12.70;2.78;;;12.70;99.90;;;;;;6288532;22;20032;-96
2023/05/30 07:38:00;;;;;;;11.90;2.70;;;12.70;99.90;;;;;;6292014;22;20010;-95
2023/05/30 07:40:28;;;;;;;11.35;2.38;;;12.70;99.90;;;;;;6291483;22;20004;-96
2023/05/30 07:43:20;;;;;;;12.35;2.75;;;12.80;99.90;;;;;;6301854;22;20015;-96
2023/05/30 07:46:29;;;;;;;13.77;2.75;;;12.90;99.90;;;;;;6289060;22;20023;-96
2023/05/30 07:48:56;;;;;;;13.27;3.05;;;13.00;99.90;;;;;;6271604;22;19999;-95
2023/05/30 07:51:22;;;;;;;13.90;2.78;;;13.00;99.90;;;;;;6267740;22;20011;-95
2023/05/30 07:53:48;;;;;;;19.13;3.35;;;13.00;99.90;;;;;;6298271;22;20030;-95
2023/05/30 07:56:14;;;;;;;13.18;2.60;;;13.10;99.90;;;;;;6296607;22;20030;-96
2023/05/30 07:58:51;;;;;;;15.13;3.15;;;13.20;99.90;;;;;;6297322;22;20012;-96
2023/05/30 08:01:18;;;;;;;15.77;3.53;;;13.20;99.90;;;;;;6296726;22;20019;-95
2023/05/30 08:03:45;;;;;;;8.77;2.50;;;13.30;99.90;;;;;;6296117;22;20003;-96
2023/05/30 08:06:12;;;;;;;15.40;2.83;;;13.30;99.90;;;;;;6319628;22;20003;-95
2023/05/30 08:08:38;;;;;;;17.15;3.25;;;13.40;99.90;;;;;;6291851;22;20003;-95
2023/05/30 08:11:11;;;;;;;18.10;2.70;;;13.60;99.90;;;;;;6294676;22;20025;-95
2023/05/30 08:13:38;;;;;;;10.63;2.70;;;13.70;99.90;;;;;;6274342;22;20019;-95
2023/05/30 08:16:14;;;;;;;11.35;3.08;;;13.80;99.90;;;;;;6306380;22;20007;-96
2023/05/30 08:18:41;;;;;;;14.10;2.90;;;13.90;99.90;;;;;;6290575;22;20022;-95
2023/05/30 08:21:08;;;;;;;6.68;2.38;;;14.00;99.90;;;;;;6289760;22;20007;-94
2023/05/30 08:23:36;;;;;;;11.10;2.55;;;14.00;99.90;;;;;;6323803;22;20003;-96
2023/05/30 08:26:30;;;;;;;11.70;3.17;;;14.10;99.90;;;;;;6301952;22;20011;-96
2023/05/30 08:28:59;;;;;;;13.25;3.22;;;14.10;99.90;;;;;;6329249;22;20006;-96
2023/05/30 08:31:31;;;;;;;14.57;3.03;;;14.00;99.90;;;;;;6302023;22;20003;-95
2023/05/30 08:34:02;;;;;;;7.28;2.65;;;14.00;99.90;;;;;;6266004;22;20069;-94
2023/05/30 08:36:28;;;;;;;11.63;2.65;;;13.90;99.90;;;;;;6258909;22;20014;-95
2023/05/30 08:38:55;;;;;;;13.43;3.28;;;13.90;99.90;;;;;;6260458;22;20016;-94
2023/05/30 08:41:23;;;;;;;12.18;3.15;;;14.00;99.90;;;;;;6232571;22;20030;-96
2023/05/30 08:43:52;;;;;;;13.18;3.58;;;14.00;99.90;;;;;;6261846;22;20010;-95
2023/05/30 08:46:25;;;;;;;18.60;3.10;;;13.90;99.90;;;;;;6258458;22;20004;-96
2023/05/30 08:48:53;;;;;;;15.75;3.53;;;14.00;99.90;;;;;;6285558;22;20011;-96
2023/05/30 08:51:24;;;;;;;11.70;3.75;;;14.10;99.90;;;;;;6259505;22;20034;-96
2023/05/30 08:54:10;;;;;;;12.97;4.30;;;14.10;99.90;;;;;;6258494;22;20004;-96
2023/05/30 08:56:47;;;;;;;18.35;4.50;;;14.10;99.80;;;;;;6270009;22;20312;-96
2023/05/30 08:59:31;;;;;;;11.57;4.32;;;14.10;99.90;;;;;;6266087;22;20015;-96
2023/05/30 09:02:00;;;;;;;14.68;4.03;;;14.10;99.90;;;;;;6266378;22;20000;-96
2023/05/30 09:04:29;;;;;;;18.60;4.15;;;14.00;99.90;;;;;;6264337;22;20008;-96
2023/05/30 09:06:58;;;;;;;9.75;3.63;;;14.10;99.90;;;;;;6264891;22;20000;-96
2023/05/30 09:09:25;;;;;;;13.25;3.83;;;14.10;99.90;;;;;;6260132;22;20000;-96
2023/05/30 09:11:52;;;;;;;9.68;3.75;;;14.20;99.90;;;;;;6256188;22;20004;-94
2023/05/30 09:14:18;;;;;;;12.18;4.20;;;14.30;99.90;;;;;;6256531;22;20003;-96
2023/05/30 09:16:45;;;;;;;7.90;3.55;;;14.50;99.80;;;;;;6258004;22;20010;-95
2023/05/30 09:19:16;;;;;;;11.13;3.75;;;14.50;99.30;;;;;;6297544;22;20000;-96
2023/05/30 09:21:44;;;;;;;5.65;3.60;;;14.50;98.90;;;;;;6270375;22;20020;-95
2023/05/30 09:24:09;;;;;;;15.65;4.05;;;14.50;98.80;;;;;;6267800;22;20003;-95
2023/05/30 09:26:35;;;;;;;16.70;4.00;;;14.50;98.70;;;;;;6271621;22;20034;-94
2023/05/30 09:29:13;;;;;;;9.00;3.58;;;14.50;98.50;;;;;;6197618;22;20832;-93
2023/05/30 09:31:44;;;;;;;12.05;3.33;;;14.40;98.60;;;;;;6186484;23;20093;-96
2023/05/30 09:34:18;;;;;;;9.90;3.70;;;14.40;98.70;;;;;;6186418;23;20007;-94
2023/05/30 09:36:53;;;;;;;10.23;4.03;;;14.40;98.90;;;;;;6219182;22;20019;-95
2023/05/30 09:39:19;;;;;;;11.80;4.10;;;14.40;98.90;;;;;;6265614;22;20012;-96
2023/05/30 09:41:46;;;;;;;14.98;4.03;;;14.40;98.90;;;;;;6305371;22;20002;-95
2023/05/30 09:44:12;;;;;;;13.90;5.07;;;14.30;99.10;;;;;;6246086;22;20004;-94
2023/05/30 09:46:38;;;;;;;11.48;5.20;;;14.20;99.30;;;;;;6299853;22;19984;-93
2023/05/30 09:49:14;;;;;;;13.20;4.65;;;14.20;99.50;;;;;;6272974;22;20068;-94
2023/05/30 09:51:40;;;;;;;9.75;3.53;;;14.20;99.70;;;;;;6264865;22;20314;-94
2023/05/30 09:54:09;;;;;;;12.52;3.65;;;14.20;99.80;;;;;;6265973;22;20029;-96
2023/05/30 09:56:37;;;;;;;22.85;3.55;;;14.20;99.90;;;;;;6290494;22;20018;-95
2023/05/30 09:59:08;;;;;;;13.70;3.63;;;14.20;99.90;;;;;;6286040;22;20019;-95
2023/05/30 10:01:41;;;;;;;10.63;3.00;;;14.20;99.90;;;;;;6258427;22;20047;-94
2023/05/30 10:04:18;;;;;;;10.23;3.70;;;14.20;99.90;;;;;;6257228;22;20062;-95
2023/05/30 10:06:51;;;;;;;12.93;3.90;;;14.20;99.90;;;;;;6259648;22;20036;-95
2023/05/30 10:09:23;;;;;;;13.77;3.70;;;14.20;99.90;;;;;;6259995;22;20012;-94
2023/05/30 10:11:50;;;;;;;10.43;3.85;;;14.20;99.90;;;;;;6266270;22;20006;-95
2023/05/30 10:14:17;;;;;;;16.15;3.92;;;14.30;99.90;;;;;;6279847;22;20028;-95
2023/05/30 10:17:02;;;;;;;9.70;3.78;;;14.30;99.90;;;;;;6279817;22;20031;-93
2023/05/30 10:19:50;;;;;;;15.45;4.63;;;14.30;99.90;;;;;;6279980;22;20008;-95
2023/05/30 10:22:19;;;;;;;12.68;4.53;;;14.30;99.90;;;;;;6279648;22;20000;-95
2023/05/30 10:24:47;;;;;;;10.95;3.67;;;14.30;99.90;;;;;;6279772;22;19996;-96
2023/05/30 10:27:20;;;;;;;13.13;4.20;;;14.40;99.90;;;;;;6279219;22;19992;-96
2023/05/30 10:30:05;;;;;;;11.40;3.65;;;14.40;99.90;;;;;;6302143;22;20072;-96
2023/05/30 10:32:36;;;;;;;15.27;4.40;;;14.30;99.90;;;;;;6271316;22;19984;-95
2023/05/30 10:35:11;;;;;;;11.95;4.13;;;14.20;99.90;;;;;;6270911;22;20003;-95
2023/05/30 10:37:43;;;;;;;9.88;4.97;;;14.30;99.90;;;;;;6270411;22;20058;-96
2023/05/30 10:40:43;;;;;;;11.35;4.13;;;14.30;99.90;;;;;;6270645;22;20500;-95
2023/05/30 10:43:17;;;;;;;15.02;5.15;;;14.40;99.90;;;;;;6298905;22;20060;-96
2023/05/30 10:46:02;;;;;;;13.82;4.20;;;14.50;99.90;;;;;;6260010;22;20007;-95
2023/05/30 10:48:44;;;;;;;11.20;4.80;;;14.50;99.90;;;;;;6256519;22;20019;-94
2023/05/30 10:51:13;;;;;;;10.55;4.70;;;14.50;99.90;;;;;;6257183;22;20435;-95
2023/05/30 10:53:46;;;;;;;9.52;5.10;;;14.50;99.90;;;;;;6259348;22;19995;-96
2023/05/30 10:56:34;;;;;;;11.05;4.57;;;14.40;99.90;;;;;;6255317;22;20000;-94
2023/05/30 10:59:02;;;;;;;12.52;5.20;;;14.50;99.90;;;;;;6287970;22;20008;-95
2023/05/30 11:01:34;;;;;;;16.27;4.88;;;14.50;99.90;;;;;;6239892;22;20003;-96
2023/05/30 11:04:11;;;;;;;10.25;5.45;;;14.50;99.90;;;;;;6270913;22;20423;-95
2023/05/30 11:06:47;;;;;;;10.93;5.22;;;14.50;99.90;;;;;;6269823;22;20004;-95
2023/05/30 11:09:20;;;;;;;15.85;5.20;;;14.50;99.90;;;;;;6274533;22;20017;-96
2023/05/30 11:12:00;;;;;;;13.35;5.07;;;14.50;99.90;;;;;;6294973;22;20002;-94
2023/05/30 11:14:35;;;;;;;10.68;5.10;;;14.50;99.90;;;;;;6292174;22;20185;-96
2023/05/30 11:17:10;;;;;;;17.17;5.80;;;14.50;99.90;;;;;;6294130;22;19999;-95
2023/05/30 11:19:49;;;;;;;16.98;5.78;;;14.50;99.90;;;;;;6266484;22;20020;-96
2023/05/30 11:22:25;;;;;;;15.95;5.72;;;14.40;99.90;;;;;;6267124;22;20007;-95
2023/05/30 11:25:18;;;;;;;12.80;5.63;;;14.30;99.90;;;;;;6275858;22;20092;-95
2023/05/30 11:28:12;;;;;;;12.38;5.75;;;14.40;99.90;;;;;;6276101;22;20007;-94
2023/05/30 11:30:45;;;;;;;17.50;5.47;;;14.40;99.90;;;;;;6256986;22;20000;-94
2023/05/30 11:33:12;;;;;;;13.27;6.20;;;14.40;99.90;;;;;;6254314;22;20012;-95
2023/05/30 11:35:38;;;;;;;15.50;6.53;;;14.50;99.90;;;;;;6228575;22;20018;-94
2023/05/30 11:38:06;;;;;;;16.85;6.63;;;14.60;99.90;;;;;;6279742;22;20431;-93
2023/05/30 11:40:32;;;;;;;12.38;5.93;;;14.60;99.90;;;;;;6279409;22;20035;-93
2023/05/30 11:42:58;;;;;;;16.52;7.05;;;14.60;99.90;;;;;;6250429;22;20003;-93
2023/05/30 11:45:30;;;;;;;17.65;7.40;;;14.60;99.90;;;;;;6277456;22;20003;-91
2023/05/30 11:48:07;;;;;;;13.88;6.85;;;14.60;99.90;;;;;;6250634;22;20011;-92
2023/05/30 11:50:43;;;;;;;15.15;6.32;;;14.50;99.90;;;;;;6252024;22;20090;-92
2023/05/30 11:53:16;;;;;;;14.00;6.30;;;14.60;99.90;;;;;;6279043;22;20000;-92
2023/05/30 11:55:47;;;;;;;10.85;4.65;;;14.70;99.90;;;;;;6250422;22;20007;-92
2023/05/30 11:58:14;;;;;;;8.43;5.05;;;14.70;99.90;;;;;;6253575;22;20011;-93
2023/05/30 12:00:41;;;;;;;12.85;5.43;;;14.70;99.90;;;;;;6252173;22;20007;-93
2023/05/30 12:03:12;;;;;;;9.02;5.32;;;14.80;99.90;;;;;;6251403;22;20008;-94
2023/05/30 12:05:38;;;;;;;9.75;4.72;;;14.80;99.90;;;;;;6251048;22;20016;-93
2023/05/30 12:08:05;;;;;;;7.63;5.25;;;14.90;99.90;;;;;;6250122;22;20031;-93
2023/05/30 12:10:31;;;;;;;10.90;4.80;;;14.90;99.90;;;;;;6251456;22;20004;-93
2023/05/30 12:12:59;;;;;;;9.80;5.43;;;14.90;99.90;;;;;;6252320;22;20007;-95
2023/05/30 12:15:25;;;;;;;10.85;5.47;;;14.80;99.90;;;;;;6251788;22;20000;-92
2023/05/30 12:17:51;;;;;;;12.57;5.70;;;14.90;99.90;;;;;;6252169;22;20054;-94
2023/05/30 12:20:17;;;;;;;12.45;5.57;;;14.90;99.90;;;;;;6279450;22;20115;-94
2023/05/30 12:22:44;;;;;;;10.35;5.20;;;14.90;99.90;;;;;;6252514;22;20007;-95
2023/05/30 12:25:10;;;;;;;8.93;6.07;;;14.90;99.90;;;;;;6254729;22;20004;-93
2023/05/30 12:27:41;;;;;;;8.77;4.80;;;14.90;99.90;;;;;;6254871;22;20010;-94
2023/05/30 12:30:16;;;;;;;8.98;5.05;;;14.90;99.90;;;;;;6251937;22;20004;-93
2023/05/30 12:32:41;;;;;;;7.75;4.63;;;14.90;99.90;;;;;;6251821;22;19999;-94
2023/05/30 12:35:08;;;;;;;10.07;4.60;;;14.90;99.90;;;;;;6255414;22;20010;-94
2023/05/30 12:37:34;;;;;;;8.48;4.70;;;14.90;99.90;;;;;;6254612;22;20093;-93
2023/05/30 12:40:02;;;;;;;9.95;4.07;;;14.90;99.90;;;;;;6227729;22;20023;-93
2023/05/30 12:42:32;;;;;;;7.70;4.47;;;15.00;99.90;;;;;;6250880;22;20415;-92
2023/05/30 12:45:00;;;;;;;9.00;4.65;;;15.10;99.90;;;;;;6251676;22;20091;-92
2023/05/30 12:47:27;;;;;;;9.32;4.32;;;15.20;99.90;;;;;;6251281;22;20082;-95
2023/05/30 12:49:54;;;;;;;10.07;4.20;;;15.20;99.90;;;;;;6251035;22;20018;-96
2023/05/30 12:52:22;;;;;;;9.35;3.72;;;15.30;99.90;;;;;;6250711;22;20569;-94